createdAt,value
2024-03-28T00:00:28.679Z,69.84
2024-03-28T00:03:16.510Z,69.67
2024-03-28T00:05:55.998Z,70.07
2024-03-28T00:08:25.477Z,69.69
2024-03-28T00:10:54.353Z,69.86
2024-03-28T00:13:22.839Z,70.34
2024-03-28T00:16:00.426Z,70.50
2024-03-28T00:18:29.941Z,70.28
2024-03-28T00:21:03.113Z,69.87
2024-03-28T00:23:30.794Z,70.23
2024-03-28T00:25:59.671Z,70.09
2024-03-28T00:28:27.734Z,70.58
2024-03-28T00:30:55.387Z,70.61
2024-03-28T00:33:23.030Z,70.90
2024-03-28T00:35:51.142Z,71.08
2024-03-28T00:38:18.937Z,71.13
2024-03-28T00:40:56.464Z,70.87
2024-03-28T00:43:24.382Z,71.39
2024-03-28T00:45:52.016Z,70.94
2024-03-28T00:48:20.405Z,70.75
2024-03-28T00:51:00.090Z,70.65
2024-03-28T00:53:28.650Z,71.72
2024-03-28T00:55:58.817Z,71.99
2024-03-28T00:58:27.423Z,71.71
2024-03-28T01:00:55.140Z,71.45
2024-03-28T01:03:23.069Z,71.73
2024-03-28T01:05:58.511Z,71.08
2024-03-28T01:08:26.477Z,71.51
2024-03-28T01:10:55.496Z,71.80
2024-03-28T01:13:23.347Z,72.02
2024-03-28T01:15:50.927Z,72.17
2024-03-28T01:18:18.507Z,71.93
2024-03-28T01:20:46.162Z,71.79
2024-03-28T01:23:13.842Z,72.03
2024-03-28T01:25:41.497Z,72.19
2024-03-28T01:28:11.003Z,72.33
2024-03-28T01:30:40.539Z,72.38
2024-03-28T01:33:08.159Z,72.09
2024-03-28T01:35:37.505Z,72.06
2024-03-28T01:38:05.259Z,71.78
2024-03-28T01:40:32.931Z,71.56
2024-03-28T01:43:06.338Z,71.25
2024-03-28T01:45:34.964Z,71.00
2024-03-28T01:48:03.302Z,71.06
2024-03-28T01:50:31.392Z,71.17
2024-03-28T01:53:00.357Z,71.33
2024-03-28T01:55:28.447Z,71.44
2024-03-28T01:57:58.490Z,71.71
2024-03-28T02:00:26.303Z,71.88
2024-03-28T02:02:58.346Z,71.86
2024-03-28T02:05:26.563Z,71.97
2024-03-28T02:07:54.178Z,72.11
2024-03-28T02:10:21.815Z,71.96
2024-03-28T02:12:50.093Z,72.30
2024-03-28T02:15:17.739Z,72.07
2024-03-28T02:17:47.006Z,72.05
2024-03-28T02:20:14.780Z,71.98
2024-03-28T02:22:42.381Z,71.99
2024-03-28T02:25:10.389Z,71.95
2024-03-28T02:27:37.967Z,71.89
2024-03-28T02:30:09.918Z,72.28
2024-03-28T02:32:37.890Z,72.00
2024-03-28T02:35:08.053Z,72.10
2024-03-28T02:37:35.707Z,72.14
2024-03-28T02:40:03.442Z,72.08
2024-03-28T02:42:31.046Z,72.26
2024-03-28T02:44:58.664Z,72.13
2024-03-28T02:47:26.354Z,72.04
2024-03-28T02:49:54.569Z,72.07
2024-03-28T02:52:22.609Z,72.08
2024-03-28T02:54:50.359Z,72.15
2024-03-28T02:57:25.166Z,72.22
2024-03-28T02:59:52.890Z,72.22
2024-03-28T03:02:20.628Z,72.28
2024-03-28T03:04:48.536Z,72.32
2024-03-28T03:07:16.520Z,72.49
2024-03-28T03:09:44.264Z,72.38
2024-03-28T03:12:12.336Z,72.58
2024-03-28T03:14:39.971Z,72.66
2024-03-28T03:17:07.559Z,72.34
2024-03-28T03:19:35.361Z,72.30
2024-03-28T03:22:03.768Z,72.18
2024-03-28T03:24:31.396Z,72.12
2024-03-28T03:26:59.320Z,72.23
2024-03-28T03:29:27.017Z,72.23
2024-03-28T03:31:54.557Z,72.26
2024-03-28T03:34:22.264Z,72.38
2024-03-28T03:36:50.021Z,72.54
2024-03-28T03:39:17.567Z,72.52
2024-03-28T03:41:46.031Z,72.51
2024-03-28T03:44:13.686Z,72.78
2024-03-28T03:46:42.763Z,72.75
2024-03-28T03:49:10.522Z,72.91
2024-03-28T03:51:38.732Z,72.73
2024-03-28T03:54:06.352Z,72.56
2024-03-28T03:56:33.990Z,72.63
2024-03-28T03:59:02.899Z,72.71
2024-03-28T04:01:30.852Z,72.72
2024-03-28T04:03:58.495Z,72.65
2024-03-28T04:06:26.199Z,72.74
2024-03-28T04:08:53.962Z,72.75
2024-03-28T04:11:21.580Z,72.73
2024-03-28T04:13:49.170Z,72.84
2024-03-28T04:16:16.851Z,73.39
2024-03-28T04:18:44.446Z,73.15
2024-03-28T04:21:12.186Z,73.26
2024-03-28T04:23:39.932Z,73.91
2024-03-28T04:26:07.493Z,73.75
2024-03-28T04:28:35.066Z,73.26
2024-03-28T04:31:02.931Z,72.97
2024-03-28T04:33:30.493Z,73.13
2024-03-28T04:35:58.232Z,73.40
2024-03-28T04:38:25.809Z,73.30
2024-03-28T04:40:53.509Z,73.39
2024-03-28T04:43:21.219Z,74.04
2024-03-28T04:45:48.919Z,74.10
2024-03-28T04:48:16.698Z,73.97
2024-03-28T04:50:44.304Z,74.18
2024-03-28T04:53:12.082Z,74.47
2024-03-28T04:55:41.116Z,74.83
2024-03-28T04:58:08.778Z,74.71
2024-03-28T05:00:37.411Z,74.54
2024-03-28T05:03:05.747Z,74.08
2024-03-28T05:05:33.537Z,74.08
2024-03-28T05:08:01.178Z,74.43
2024-03-28T05:10:29.145Z,74.67
2024-03-28T05:12:57.091Z,74.45
2024-03-28T05:15:24.956Z,74.06
2024-03-28T05:17:52.571Z,74.33
2024-03-28T05:20:20.404Z,74.64
2024-03-28T05:22:47.979Z,74.27
2024-03-28T05:25:15.728Z,74.23
2024-03-28T05:27:43.343Z,73.85
2024-03-28T05:30:11.304Z,73.56
2024-03-28T05:32:38.895Z,73.95
2024-03-28T05:35:06.691Z,73.74
2024-03-28T05:37:34.261Z,73.58
2024-03-28T05:40:01.969Z,73.31
2024-03-28T05:42:29.615Z,73.37
2024-03-28T05:44:57.303Z,73.52
2024-03-28T05:47:24.951Z,73.88
2024-03-28T05:49:52.586Z,74.15
2024-03-28T05:52:20.176Z,74.15
2024-03-28T05:54:47.795Z,74.02
2024-03-28T05:57:15.432Z,73.58
2024-03-28T05:59:43.031Z,73.57
2024-03-28T06:02:10.624Z,73.75
2024-03-28T06:04:38.329Z,73.85
2024-03-28T06:07:05.937Z,73.86
2024-03-28T06:09:33.550Z,73.68
2024-03-28T06:12:01.743Z,73.74
2024-03-28T06:14:29.318Z,73.38
2024-03-28T06:16:56.930Z,73.21
2024-03-28T06:19:24.501Z,73.24
2024-03-28T06:21:52.093Z,72.99
2024-03-28T06:24:20.026Z,72.86
2024-03-28T06:26:50.669Z,72.51
2024-03-28T06:29:18.254Z,72.76
2024-03-28T06:31:46.002Z,72.21
2024-03-28T06:34:13.617Z,71.89
2024-03-28T06:36:41.204Z,71.70
2024-03-28T06:39:08.930Z,71.55
2024-03-28T06:41:36.528Z,71.25
2024-03-28T06:44:04.181Z,71.06
2024-03-28T06:46:32.056Z,70.86
2024-03-28T06:48:59.649Z,70.97
2024-03-28T06:51:27.282Z,70.39
2024-03-28T06:53:54.992Z,70.26
2024-03-28T06:56:22.636Z,69.88
2024-03-28T06:58:52.105Z,69.63
2024-03-28T07:01:19.947Z,69.42
2024-03-28T07:03:47.544Z,69.13
2024-03-28T07:06:19.339Z,69.02
2024-03-28T07:08:47.296Z,69.11
2024-03-28T07:11:15.017Z,69.05
2024-03-28T07:13:42.626Z,68.99
2024-03-28T07:16:10.456Z,69.02
2024-03-28T07:18:38.077Z,68.93
2024-03-28T07:21:05.743Z,69.27
2024-03-28T07:23:33.423Z,69.11
2024-03-28T07:26:01.094Z,69.08
2024-03-28T07:28:28.707Z,69.07
2024-03-28T07:30:56.312Z,69.35
2024-03-28T07:33:23.842Z,69.54
2024-03-28T07:35:51.556Z,69.35
2024-03-28T07:38:19.553Z,68.78
2024-03-28T07:40:51.861Z,68.78
2024-03-28T07:43:19.483Z,68.46
2024-03-28T07:45:47.101Z,68.32
2024-03-28T07:48:15.062Z,68.39
2024-03-28T07:50:42.718Z,67.19
2024-03-28T07:53:10.406Z,67.19
2024-03-28T07:55:38.006Z,66.95
2024-03-28T07:58:05.615Z,66.60
2024-03-28T08:00:33.459Z,66.72
2024-03-28T08:03:01.076Z,66.83
2024-03-28T08:05:28.778Z,66.99
2024-03-28T08:07:56.425Z,67.31
2024-03-28T08:10:24.234Z,67.44
2024-03-28T08:12:51.831Z,67.22
2024-03-28T08:15:19.440Z,66.94
2024-03-28T08:17:47.208Z,67.22
2024-03-28T08:20:14.968Z,66.51
2024-03-28T08:22:43.084Z,65.42
2024-03-28T08:25:10.742Z,64.10
2024-03-28T08:27:39.795Z,64.57
2024-03-28T08:30:08.121Z,64.50
2024-03-28T08:32:35.859Z,64.03
2024-03-28T08:35:03.856Z,62.94
2024-03-28T08:37:31.520Z,62.95
2024-03-28T08:39:59.397Z,61.48
2024-03-28T08:42:27.168Z,60.66
2024-03-28T08:44:54.776Z,60.60
2024-03-28T08:47:22.548Z,60.59
2024-03-28T08:49:50.280Z,60.36
2024-03-28T08:52:18.338Z,60.29
2024-03-28T08:54:46.052Z,60.33
2024-03-28T08:57:13.678Z,60.70
2024-03-28T08:59:41.298Z,57.74
2024-03-28T09:02:08.932Z,56.88
2024-03-28T09:04:36.615Z,57.51
2024-03-28T09:07:04.426Z,56.25
2024-03-28T09:09:32.088Z,55.80
2024-03-28T09:11:59.795Z,55.54
2024-03-28T09:14:27.406Z,54.48
2024-03-28T09:16:55.193Z,54.48
2024-03-28T09:19:22.802Z,55.02
2024-03-28T09:21:50.728Z,54.88
2024-03-28T09:24:18.906Z,55.28
2024-03-28T09:26:46.642Z,54.43
2024-03-28T09:29:14.346Z,53.28
2024-03-28T09:31:41.909Z,52.41
2024-03-28T09:34:09.490Z,52.31
2024-03-28T09:36:37.523Z,52.35
2024-03-28T09:39:05.251Z,51.32
2024-03-28T09:41:34.550Z,51.04
2024-03-28T09:44:06.628Z,50.70
2024-03-28T09:46:34.759Z,49.83
2024-03-28T09:49:03.726Z,49.85
2024-03-28T09:51:31.394Z,48.83
2024-03-28T09:53:59.151Z,49.02
2024-03-28T09:56:26.698Z,48.78
2024-03-28T09:58:55.615Z,49.40
2024-03-28T10:01:25.018Z,50.08
2024-03-28T10:04:06.405Z,51.40
2024-03-28T10:06:34.060Z,52.33
2024-03-28T10:09:03.046Z,53.08
2024-03-28T10:11:31.080Z,54.94
2024-03-28T10:13:58.849Z,56.99
2024-03-28T10:16:26.651Z,57.73
2024-03-28T10:18:57.587Z,58.00
2024-03-28T10:21:25.371Z,58.38
2024-03-28T10:23:53.028Z,59.17
2024-03-28T10:26:20.791Z,59.03
2024-03-28T10:28:48.636Z,58.82
2024-03-28T10:31:26.406Z,57.71
2024-03-28T10:33:54.569Z,57.52
2024-03-28T10:36:25.285Z,55.29
2024-03-28T10:39:03.219Z,55.19
2024-03-28T10:41:31.104Z,54.16
2024-03-28T10:44:01.639Z,53.42
2024-03-28T10:46:29.938Z,49.62
2024-03-28T10:48:58.280Z,48.63
2024-03-28T10:51:32.954Z,48.55
2024-03-28T10:54:06.576Z,49.19
2024-03-28T10:56:40.376Z,48.57
2024-03-28T10:59:09.839Z,49.27
2024-03-28T11:01:38.406Z,49.43
2024-03-28T11:04:06.543Z,49.80
2024-03-28T11:06:34.401Z,50.87
2024-03-28T11:09:02.587Z,52.07
2024-03-28T11:11:31.784Z,52.76
2024-03-28T11:13:59.501Z,53.61
2024-03-28T11:16:27.236Z,53.80
2024-03-28T11:19:01.072Z,53.90
2024-03-28T11:21:30.429Z,53.55
2024-03-28T11:23:59.364Z,53.21
2024-03-28T11:26:27.747Z,50.84
2024-03-28T11:29:06.407Z,48.64
2024-03-28T11:31:35.847Z,48.78
2024-03-28T11:34:06.578Z,48.50
2024-03-28T11:36:34.699Z,48.55
2024-03-28T11:39:02.330Z,49.32
2024-03-28T11:41:30.708Z,49.98
2024-03-28T11:43:58.440Z,50.39
2024-03-28T11:46:26.021Z,50.20
2024-03-28T11:49:07.731Z,50.61
2024-03-28T11:51:43.993Z,49.45
2024-03-28T11:54:12.556Z,48.76
2024-03-28T11:56:44.102Z,47.01
2024-03-28T11:59:21.737Z,46.52
2024-03-28T12:01:50.233Z,46.28
2024-03-28T12:04:25.041Z,46.97
2024-03-28T12:06:54.715Z,47.31
2024-03-28T12:09:22.590Z,47.65
2024-03-28T12:11:50.266Z,48.48
2024-03-28T12:14:23.928Z,49.31
2024-03-28T12:16:51.645Z,50.26
2024-03-28T12:19:25.821Z,51.18
2024-03-28T12:21:53.441Z,51.71
2024-03-28T12:24:21.218Z,51.73
2024-03-28T12:26:48.836Z,51.61
2024-03-28T12:29:24.974Z,51.43
2024-03-28T12:32:06.619Z,51.57
2024-03-28T12:34:34.385Z,51.83
2024-03-28T12:37:02.165Z,51.75
2024-03-28T12:39:29.795Z,51.58
2024-03-28T12:41:57.516Z,51.55
2024-03-28T12:44:28.039Z,48.99
2024-03-28T12:46:55.611Z,46.24
2024-03-28T12:49:23.688Z,42.47
2024-03-28T12:51:51.290Z,39.63
2024-03-28T12:54:18.903Z,37.18
2024-03-28T12:56:46.689Z,36.61
2024-03-28T12:59:14.456Z,34.51
2024-03-28T13:01:42.227Z,34.44
2024-03-28T13:04:09.890Z,33.14
2024-03-28T13:06:41.830Z,34.32
2024-03-28T13:09:12.325Z,33.14
2024-03-28T13:11:39.902Z,31.25
2024-03-28T13:14:07.455Z,29.93
2024-03-28T13:16:35.063Z,31.41
2024-03-28T13:19:02.654Z,32.34
2024-03-28T13:21:30.274Z,33.75
2024-03-28T13:23:57.888Z,34.00
2024-03-28T13:26:44.061Z,35.00
2024-03-28T13:29:13.025Z,34.72
2024-03-28T13:31:40.678Z,34.54
2024-03-28T13:34:08.367Z,34.66
2024-03-28T13:36:36.324Z,32.30
2024-03-28T13:39:04.230Z,32.14
2024-03-28T13:41:32.205Z,31.36
2024-03-28T13:43:59.853Z,30.52
2024-03-28T13:46:27.744Z,31.27
2024-03-28T13:48:55.457Z,31.44
2024-03-28T13:51:23.158Z,31.95
2024-03-28T13:53:50.740Z,30.56
2024-03-28T13:56:18.413Z,30.56
2024-03-28T13:58:46.216Z,29.37
2024-03-28T14:01:14.378Z,29.57
2024-03-28T14:03:42.005Z,29.48
2024-03-28T14:06:09.659Z,29.37
2024-03-28T14:08:37.328Z,28.83
2024-03-28T14:11:05.019Z,29.17
2024-03-28T14:13:32.631Z,28.40
2024-03-28T14:16:00.733Z,27.98
2024-03-28T14:18:28.390Z,28.64
2024-03-28T14:20:55.978Z,29.54
2024-03-28T14:23:23.953Z,31.12
2024-03-28T14:26:00.161Z,33.05
2024-03-28T14:28:28.468Z,35.22
2024-03-28T14:30:56.392Z,37.09
2024-03-28T14:33:23.987Z,39.15
2024-03-28T14:36:06.302Z,41.06
2024-03-28T14:38:34.589Z,42.90
2024-03-28T14:41:07.362Z,43.36
2024-03-28T14:43:36.687Z,44.19
2024-03-28T14:46:09.188Z,44.48
2024-03-28T14:48:37.682Z,45.74
2024-03-28T14:51:09.911Z,45.93
2024-03-28T14:53:38.943Z,46.48
2024-03-28T14:56:07.082Z,46.93
2024-03-28T14:58:42.489Z,47.28
2024-03-28T15:01:12.651Z,47.56
2024-03-28T15:03:40.423Z,47.84
2024-03-28T15:06:08.312Z,48.00
2024-03-28T15:08:35.976Z,48.52
2024-03-28T15:11:05.065Z,48.21
2024-03-28T15:13:32.882Z,48.50
2024-03-28T15:16:02.203Z,48.51
2024-03-28T15:18:29.901Z,48.33
2024-03-28T15:20:57.547Z,48.44
2024-03-28T15:23:25.998Z,48.71
2024-03-28T15:25:53.623Z,48.79
2024-03-28T15:28:21.253Z,48.55
2024-03-28T15:30:49.324Z,48.61
2024-03-28T15:33:16.878Z,48.66
2024-03-28T15:35:44.506Z,48.22
2024-03-28T15:38:12.134Z,48.21
2024-03-28T15:40:39.835Z,48.44
2024-03-28T15:43:07.593Z,46.82
2024-03-28T15:45:35.573Z,43.57
2024-03-28T15:48:03.547Z,41.50
2024-03-28T15:50:31.192Z,36.81
2024-03-28T15:52:58.964Z,35.94
2024-03-28T15:55:26.720Z,33.16
2024-03-28T15:57:54.329Z,31.98
2024-03-28T16:00:22.097Z,32.61
2024-03-28T16:02:49.803Z,32.62
2024-03-28T16:05:17.600Z,34.42
2024-03-28T16:07:45.550Z,35.91
2024-03-28T16:10:14.672Z,37.19
2024-03-28T16:12:43.774Z,38.27
2024-03-28T16:15:11.383Z,38.97
2024-03-28T16:17:39.111Z,40.18
2024-03-28T16:20:07.370Z,40.90
2024-03-28T16:22:34.994Z,41.92
2024-03-28T16:25:02.774Z,42.68
2024-03-28T16:27:30.684Z,42.94
2024-03-28T16:29:58.299Z,44.08
2024-03-28T16:32:25.927Z,44.46
2024-03-28T16:34:53.588Z,45.43
2024-03-28T16:37:21.175Z,45.47
2024-03-28T16:39:48.849Z,47.01
2024-03-28T16:42:16.483Z,47.12
2024-03-28T16:44:44.163Z,47.52
2024-03-28T16:47:12.028Z,47.61
2024-03-28T16:49:39.611Z,47.76
2024-03-28T16:52:07.815Z,48.62
2024-03-28T16:54:35.431Z,49.44
2024-03-28T16:57:03.107Z,48.74
2024-03-28T16:59:30.788Z,49.05
2024-03-28T17:01:58.355Z,49.42
2024-03-28T17:04:27.379Z,50.13
2024-03-28T17:06:56.506Z,50.03
2024-03-28T17:09:24.118Z,50.95
2024-03-28T17:11:52.666Z,50.73
2024-03-28T17:14:20.603Z,51.10
2024-03-28T17:16:48.240Z,51.07
2024-03-28T17:19:18.224Z,52.47
2024-03-28T17:21:47.666Z,51.83
2024-03-28T17:24:15.247Z,51.65
2024-03-28T17:26:42.948Z,51.94
2024-03-28T17:29:10.703Z,52.13
2024-03-28T17:31:38.300Z,52.80
2024-03-28T17:34:06.004Z,53.09
2024-03-28T17:36:33.707Z,53.29
2024-03-28T17:39:01.379Z,53.10
2024-03-28T17:41:29.295Z,53.55
2024-03-28T17:43:57.009Z,53.75
2024-03-28T17:46:25.749Z,53.50
2024-03-28T17:48:54.710Z,54.56
2024-03-28T17:51:22.470Z,54.23
2024-03-28T17:53:50.705Z,54.34
2024-03-28T17:56:18.356Z,54.52
2024-03-28T17:58:46.273Z,55.49
2024-03-28T18:01:13.874Z,55.28
2024-03-28T18:03:41.793Z,55.06
2024-03-28T18:06:09.419Z,55.32
2024-03-28T18:08:37.014Z,55.51
2024-03-28T18:11:04.706Z,55.79
2024-03-28T18:13:32.433Z,56.43
2024-03-28T18:16:04.108Z,56.47
2024-03-28T18:18:31.820Z,56.90
2024-03-28T18:21:03.215Z,57.02
2024-03-28T18:23:30.914Z,57.30
2024-03-28T18:26:00.906Z,58.02
2024-03-28T18:28:28.757Z,57.74
2024-03-28T18:30:56.384Z,57.75
2024-03-28T18:33:24.152Z,58.73
2024-03-28T18:36:02.012Z,58.96
2024-03-28T18:38:29.962Z,59.20
2024-03-28T18:40:57.644Z,59.44
2024-03-28T18:43:25.666Z,59.74
2024-03-28T18:45:58.656Z,60.07
2024-03-28T18:48:26.814Z,60.10
2024-03-28T18:50:55.730Z,60.41
2024-03-28T18:53:23.465Z,59.75
2024-03-28T18:56:02.035Z,59.65
2024-03-28T18:58:29.726Z,59.69
2024-03-28T19:00:57.819Z,59.95
2024-03-28T19:03:25.607Z,59.97
2024-03-28T19:05:53.425Z,60.16
2024-03-28T19:08:21.120Z,60.23
2024-03-28T19:10:49.777Z,60.62
2024-03-28T19:13:17.384Z,60.73
2024-03-28T19:15:47.582Z,60.71
2024-03-28T19:18:16.037Z,60.78
2024-03-28T19:20:46.799Z,61.18
2024-03-28T19:23:16.580Z,61.07
2024-03-28T19:25:46.631Z,60.93
2024-03-28T19:28:14.976Z,61.21
2024-03-28T19:30:45.170Z,61.27
2024-03-28T19:33:13.349Z,61.45
2024-03-28T19:35:42.381Z,61.68
2024-03-28T19:38:12.381Z,62.04
2024-03-28T19:40:40.109Z,61.88
2024-03-28T19:43:07.852Z,62.03
2024-03-28T19:45:37.912Z,61.84
2024-03-28T19:48:07.489Z,61.73
2024-03-28T19:50:35.746Z,61.85
2024-03-28T19:53:04.613Z,61.83
2024-03-28T19:55:33.023Z,61.56
2024-03-28T19:58:01.003Z,61.48
2024-03-28T20:00:29.222Z,61.43
2024-03-28T20:02:56.952Z,61.35
2024-03-28T20:05:25.918Z,61.21
2024-03-28T20:07:58.742Z,61.04
2024-03-28T20:10:26.681Z,60.83
2024-03-28T20:12:54.285Z,60.79
2024-03-28T20:15:24.249Z,60.73
2024-03-28T20:17:52.008Z,60.74
2024-03-28T20:20:19.636Z,60.69
2024-03-28T20:22:47.580Z,60.65
2024-03-28T20:25:15.397Z,60.54
2024-03-28T20:27:43.379Z,60.59
2024-03-28T20:30:11.682Z,60.60
2024-03-28T20:32:39.411Z,60.65
2024-03-28T20:35:07.352Z,60.80
2024-03-28T20:37:37.846Z,61.42
2024-03-28T20:40:06.286Z,61.55
2024-03-28T20:42:33.948Z,61.46
2024-03-28T20:45:01.634Z,62.32
2024-03-28T20:47:29.469Z,63.50
2024-03-28T20:49:57.373Z,64.14
2024-03-28T20:52:25.075Z,64.95
2024-03-28T21:18:09.306Z,73.01
2024-03-28T21:20:36.992Z,73.95
2024-03-28T21:23:04.790Z,74.50
2024-03-28T21:25:32.675Z,75.83
2024-03-28T21:28:00.449Z,75.66
2024-03-28T21:30:30.213Z,76.07
2024-03-28T21:32:57.989Z,76.48
2024-03-28T21:35:29.164Z,77.63
2024-03-28T21:37:56.787Z,75.77
2024-03-28T21:40:24.612Z,76.63
2024-03-28T21:42:52.311Z,78.18
2024-03-28T21:45:19.994Z,77.52
2024-03-28T21:47:47.699Z,79.42
2024-03-28T21:50:15.373Z,78.64
2024-03-28T21:52:43.058Z,80.09
2024-03-28T21:55:11.399Z,80.27
2024-03-28T21:57:39.114Z,80.84
2024-03-28T22:00:07.762Z,81.42
2024-03-28T22:02:36.038Z,81.74
2024-03-28T22:05:03.870Z,82.35
2024-03-28T22:07:31.552Z,82.76
2024-03-28T22:10:00.074Z,83.02
2024-03-28T22:12:27.850Z,83.25
2024-03-28T22:14:55.412Z,84.25
2024-03-28T22:17:23.175Z,85.93
2024-03-28T22:19:50.762Z,86.43
2024-03-28T22:22:18.332Z,85.97
2024-03-28T22:24:46.512Z,87.68
2024-03-28T22:27:14.344Z,87.76
2024-03-28T22:29:41.938Z,89.05
2024-03-28T22:32:09.634Z,89.31
2024-03-28T22:34:37.474Z,89.23
2024-03-28T22:37:05.126Z,88.15
2024-03-28T22:39:33.112Z,88.83
2024-03-28T22:42:01.020Z,88.49
2024-03-28T22:44:28.608Z,88.81
2024-03-28T22:46:56.336Z,89.10
2024-03-28T22:49:24.156Z,89.10
2024-03-28T22:51:52.657Z,88.43
2024-03-28T22:54:20.572Z,88.55
2024-03-28T22:56:48.323Z,89.66
2024-03-28T22:59:15.882Z,89.49
2024-03-28T23:01:43.603Z,89.58
2024-03-28T23:04:11.429Z,89.68
2024-03-28T23:06:39.055Z,90.34
2024-03-28T23:09:06.672Z,91.28
2024-03-28T23:11:34.261Z,90.85
2024-03-28T23:14:01.925Z,91.44
2024-03-28T23:16:29.727Z,91.50
2024-03-28T23:18:57.327Z,92.02
2024-03-28T23:21:25.286Z,92.07
2024-03-28T23:23:53.019Z,92.30
2024-03-28T23:26:20.669Z,92.20
2024-03-28T23:28:48.892Z,92.52
2024-03-28T23:31:16.493Z,92.68
2024-03-28T23:33:44.088Z,92.54
2024-03-28T23:36:11.727Z,92.72
2024-03-28T23:38:39.684Z,92.58
2024-03-28T23:41:07.357Z,92.53
2024-03-28T23:43:34.984Z,92.51
2024-03-28T23:46:02.730Z,92.62
2024-03-28T23:48:30.369Z,92.75
2024-03-28T23:50:58.146Z,92.71
2024-03-28T23:53:25.988Z,92.26
2024-03-28T23:55:53.697Z,91.96
2024-03-28T23:58:21.285Z,91.90
